Time;durP1;ratioP1;P1;durP2;ratioP2;P2;SDS_P1;SDS_P2;PMS_P1;PMS_P2;Temp;Humidity;BMP_temperature;BMP_pressure;BME280_temperature;BME280_humidity;BME280_pressure;Samples;Min_cycle;Max_cycle;Signal;HPM_P1;HPM_P2
2021/08/12 00:02:22;;;;;;;;;;;;;;;22.39;51.52;100784.28;5119740;28;1013;-49
2021/08/12 00:04:48;;;;;;;;;;;;;;;22.43;51.43;100779.75;5119611;28;819;-42
2021/08/12 00:07:14;;;;;;;;;;;;;;;22.55;51.24;100779.16;5119554;28;1011;-46
2021/08/12 00:09:39;;;;;;;;;;;;;;;22.51;51.25;100778.16;5119552;28;1910;-43
2021/08/12 00:12:05;;;;;;;;;;;;;;;21.81;52.96;100778.31;5119138;28;759;-58
2021/08/12 00:14:30;;;;;;;;;;;;;;;21.70;53.08;100779.66;5119554;28;807;-60
2021/08/12 00:16:56;;;;;;;;;;;;;;;21.73;53.69;100778.22;5119047;28;962;-54
2021/08/12 00:19:21;;;;;;;;;;;;;;;22.17;53.73;100769.22;5119270;28;775;-58
2021/08/12 00:21:47;;;;;;;;;;;;;;;22.40;54.95;100772.06;5119753;28;759;-42
2021/08/12 00:24:13;;;;;;;;;;;;;;;22.62;55.79;100775.97;5119243;28;747;-60
2021/08/12 00:26:39;;;;;;;;;;;;;;;22.12;57.33;100774.88;5118804;28;759;-60
2021/08/12 00:29:04;;;;;;;;;;;;;;;21.93;56.59;100777.78;5100997;28;1917;-43
2021/08/12 00:31:31;;;;;;;;;;;;;;;21.32;56.75;100779.81;5119067;28;962;-42
2021/08/12 00:33:57;;;;;;;;;;;;;;;21.83;53.40;100778.81;5118998;28;798;-59
2021/08/12 00:36:22;;;;;;;;;;;;;;;22.05;51.65;100775.31;5100398;28;1220;-60
2021/08/12 00:38:48;;;;;;;;;;;;;;;22.11;50.70;100784.31;5100832;28;1515;-60
2021/08/12 00:41:13;;;;;;;;;;;;;;;22.11;49.98;100770.47;5118750;28;799;-60
2021/08/12 00:43:39;;;;;;;;;;;;;;;22.03;49.89;100782.28;5119211;28;782;-59
2021/08/12 00:46:06;;;;;;;;;;;;;;;21.95;49.53;100783.00;5100300;28;1399;-60
2021/08/12 00:48:31;;;;;;;;;;;;;;;22.04;49.23;100779.19;5100035;28;1098;-61
2021/08/12 00:50:59;;;;;;;;;;;;;;;22.19;48.60;100769.72;5100422;28;1921;-58
2021/08/12 00:53:27;;;;;;;;;;;;;;;22.19;48.32;100778.03;5101755;28;811;-42
2021/08/12 00:55:53;;;;;;;;;;;;;;;22.24;48.11;100781.81;5083662;28;1226;-59
2021/08/12 00:58:19;;;;;;;;;;;;;;;22.15;48.17;100779.78;5100596;28;1305;-58
2021/08/12 01:00:47;;;;;;;;;;;;;;;22.10;48.22;100781.84;5100822;28;1513;-58
2021/08/12 01:03:13;;;;;;;;;;;;;;;22.16;48.00;100786.97;5099719;28;1113;-58
2021/08/12 01:05:45;;;;;;;;;;;;;;;22.08;47.90;100784.94;5100510;28;1257;-58
2021/08/12 01:08:22;;;;;;;;;;;;;;;22.11;47.83;100794.59;5100382;28;1307;-59
2021/08/12 01:10:56;;;;;;;;;;;;;;;22.06;47.87;100792.72;5083142;28;1901;-63
2021/08/12 01:13:29;;;;;;;;;;;;;;;22.16;47.56;100786.97;5083851;28;1424;-63
2021/08/12 01:15:56;;;;;;;;;;;;;;;22.08;47.68;100782.19;5100178;28;1138;-43
2021/08/12 01:18:22;;;;;;;;;;;;;;;22.04;47.70;100784.72;5098551;28;1102;-60
2021/08/12 01:21:00;;;;;;;;;;;;;;;22.01;47.76;100790.09;5100473;28;1288;-59
2021/08/12 01:23:26;;;;;;;;;;;;;;;22.04;47.47;100783.94;5100495;28;1225;-59
2021/08/12 01:25:51;;;;;;;;;;;;;;;22.02;47.49;100787.00;5099847;28;842;-61
2021/08/12 01:28:18;;;;;;;;;;;;;;;21.95;47.53;100786.63;5099806;28;1193;-42
2021/08/12 01:30:47;;;;;;;;;;;;;;;21.84;47.71;100799.84;5118004;28;1909;-46
2021/08/12 01:33:31;;;;;;;;;;;;;;;21.98;47.47;100785.97;5082247;28;1099;-60
2021/08/12 01:35:57;;;;;;;;;;;;;;;21.96;47.27;100787.41;5099990;28;1110;-61
2021/08/12 01:38:24;;;;;;;;;;;;;;;21.93;47.41;100780.56;5099671;28;1227;-61
2021/08/12 01:40:51;;;;;;;;;;;;;;;21.95;47.19;100789.38;5082841;28;1412;-59
2021/08/12 01:43:18;;;;;;;;;;;;;;;21.93;47.13;100797.16;5100020;28;1303;-59
2021/08/12 01:45:49;;;;;;;;;;;;;;;21.94;47.24;100800.78;5099585;28;1117;-47
2021/08/12 01:48:16;;;;;;;;;;;;;;;21.89;47.17;100801.69;5082307;28;1260;-43
2021/08/12 01:50:42;;;;;;;;;;;;;;;21.86;47.27;100799.53;5099646;28;1915;-60
2021/08/12 01:53:08;;;;;;;;;;;;;;;21.82;47.44;100795.75;5098829;28;984;-60
2021/08/12 01:55:33;;;;;;;;;;;;;;;21.88;47.24;100800.03;5081958;28;1407;-60
2021/08/12 01:57:59;;;;;;;;;;;;;;;22.01;46.80;100801.16;5082442;28;1114;-45
2021/08/12 02:00:25;;;;;;;;;;;;;;;21.87;47.08;100795.66;5099508;28;809;-54
2021/08/12 02:02:51;;;;;;;;;;;;;;;21.81;47.21;100803.22;5082080;28;1256;-60
2021/08/12 02:05:16;;;;;;;;;;;;;;;21.77;47.16;100802.22;5117495;28;855;-59
2021/08/12 02:07:43;;;;;;;;;;;;;;;21.71;47.54;100800.66;5098943;28;1368;-57
2021/08/12 02:10:10;;;;;;;;;;;;;;;21.66;47.58;100795.25;5116881;28;1913;-59
2021/08/12 02:12:35;;;;;;;;;;;;;;;21.79;47.11;100797.16;5099030;28;1168;-59
2021/08/12 02:15:01;;;;;;;;;;;;;;;21.83;47.07;100795.44;5099211;28;1161;-43
2021/08/12 02:17:26;;;;;;;;;;;;;;;21.77;47.19;100793.91;5098847;28;1293;-60
2021/08/12 02:19:52;;;;;;;;;;;;;;;21.84;47.12;100799.03;5098895;28;1268;-60
2021/08/12 02:22:19;;;;;;;;;;;;;;;21.80;47.12;100800.78;5082311;28;1316;-60
2021/08/12 02:25:04;;;;;;;;;;;;;;;21.68;47.61;100804.03;5098658;28;1312;-59
2021/08/12 02:27:30;;;;;;;;;;;;;;;21.73;47.39;100806.72;5098720;28;1138;-58
2021/08/12 02:29:56;;;;;;;;;;;;;;;21.70;47.45;100812.88;5099548;28;1914;-60
2021/08/12 02:32:23;;;;;;;;;;;;;;;21.70;47.43;100804.56;5070024;28;1285;-59
2021/08/12 02:34:49;;;;;;;;;;;;;;;21.82;47.10;100801.28;5096468;28;515;-59
2021/08/12 02:37:15;;;;;;;;;;;;;;;21.80;47.15;100806.31;5078102;28;863;-42
2021/08/12 02:39:41;;;;;;;;;;;;;;;21.74;47.65;100813.91;5096222;28;776;-59
2021/08/12 02:42:09;;;;;;;;;;;;;;;21.85;48.57;100808.97;5062284;28;1229;-41
2021/08/12 02:44:35;;;;;;;;;;;;;;;21.91;49.82;100810.50;5078609;28;1202;-59
2021/08/12 02:47:03;;;;;;;;;;;;;;;22.01;50.89;100810.28;5069465;28;1530;-58
2021/08/12 02:49:29;;;;;;;;;;;;;;;22.12;51.48;100813.66;5081976;28;1941;-42
2021/08/12 02:51:55;;;;;;;;;;;;;;;22.22;52.05;100818.94;5098983;28;1225;-58
2021/08/12 02:54:21;;;;;;;;;;;;;;;22.29;52.52;100812.19;5098147;28;1952;-47
2021/08/12 02:56:46;;;;;;;;;;;;;;;22.37;52.70;100817.84;5116785;28;804;-58
2021/08/12 02:59:14;;;;;;;;;;;;;;;22.42;52.93;100816.88;5098555;28;1145;-61
2021/08/12 03:01:39;;;;;;;;;;;;;;;22.46;53.08;100820.66;5078382;28;1094;-44
2021/08/12 03:04:04;;;;;;;;;;;;;;;22.50;53.24;100823.66;5078388;28;752;-44
2021/08/12 03:06:30;;;;;;;;;;;;;;;22.52;53.42;100827.72;5078426;28;1328;-44
2021/08/12 03:08:56;;;;;;;;;;;;;;;22.07;54.29;100827.59;5061046;28;753;-51
2021/08/12 03:11:21;;;;;;;;;;;;;;;21.67;55.40;100830.06;5099083;28;1976;-47
2021/08/12 03:13:48;;;;;;;;;;;;;;;21.20;56.57;100836.44;5082719;28;780;-43
2021/08/12 03:16:13;;;;;;;;;;;;;;;21.68;55.21;100832.53;5101733;28;955;-46
2021/08/12 03:18:39;;;;;;;;;;;;;;;22.07;53.40;100837.88;5102626;28;1114;-44
2021/08/12 03:21:09;;;;;;;;;;;;;;;22.12;51.94;100838.56;5084634;28;852;-44
2021/08/12 03:23:36;;;;;;;;;;;;;;;22.09;50.25;100825.34;5101726;28;1101;-49
2021/08/12 03:26:03;;;;;;;;;;;;;;;21.96;48.05;100840.84;5102424;28;1142;-44
2021/08/12 03:28:29;;;;;;;;;;;;;;;21.77;46.29;100840.13;5102902;28;1111;-44
2021/08/12 03:30:54;;;;;;;;;;;;;;;21.78;45.19;100848.13;5102007;28;1918;-46
2021/08/12 03:33:20;;;;;;;;;;;;;;;21.69;46.00;100838.91;5120035;28;958;-44
2021/08/12 03:35:45;;;;;;;;;;;;;;;21.73;47.06;100856.53;5102023;28;1228;-42
2021/08/12 03:38:11;;;;;;;;;;;;;;;21.77;48.61;100851.19;5101785;28;1327;-54
2021/08/12 03:40:37;;;;;;;;;;;;;;;21.90;49.45;100857.88;5101830;28;1145;-44
2021/08/12 03:43:03;;;;;;;;;;;;;;;22.09;49.54;100861.34;5102264;28;1145;-64
2021/08/12 03:45:28;;;;;;;;;;;;;;;22.14;49.79;100860.41;5120140;28;771;-43
2021/08/12 03:47:54;;;;;;;;;;;;;;;22.29;50.83;100867.59;5119805;28;954;-50
2021/08/12 03:50:21;;;;;;;;;;;;;;;22.34;52.43;100864.72;5101808;28;1976;-65
2021/08/12 03:52:46;;;;;;;;;;;;;;;22.43;53.42;100871.19;5102352;28;811;-63
2021/08/12 03:55:11;;;;;;;;;;;;;;;22.54;53.86;100857.91;5116075;28;1503;-66
2021/08/12 03:57:43;;;;;;;;;;;;;;;21.60;55.82;100868.41;5083484;28;1173;-62
2021/08/12 04:00:10;;;;;;;;;;;;;;;21.90;53.12;100871.72;5113476;28;819;-65
2021/08/12 04:02:38;;;;;;;;;;;;;;;21.35;53.46;100879.59;5118542;28;812;-68
2021/08/12 04:05:04;;;;;;;;;;;;;;;21.68;51.31;100878.75;5101727;28;1334;-56
2021/08/12 04:07:30;;;;;;;;;;;;;;;21.50;49.54;100881.28;5100853;28;1008;-44
2021/08/12 04:09:56;;;;;;;;;;;;;;;21.47;46.99;100879.09;5101400;28;1909;-67
2021/08/12 04:12:21;;;;;;;;;;;;;;;21.32;45.06;100877.47;5101355;28;1241;-64
2021/08/12 04:14:47;;;;;;;;;;;;;;;21.24;43.25;100880.06;5117287;28;961;-64
2021/08/12 04:17:13;;;;;;;;;;;;;;;21.18;42.06;100879.34;5107225;28;1259;-69
2021/08/12 04:19:39;;;;;;;;;;;;;;;20.95;41.71;100886.66;5110836;28;835;-46
2021/08/12 04:22:04;;;;;;;;;;;;;;;20.80;41.55;100887.69;5079577;28;1448;-46
2021/08/12 04:24:30;;;;;;;;;;;;;;;20.62;40.55;100883.78;5078297;28;1297;-61
2021/08/12 04:26:56;;;;;;;;;;;;;;;20.52;40.72;100880.06;5097786;28;831;-45
2021/08/12 04:29:23;;;;;;;;;;;;;;;20.39;40.43;100886.31;5097833;28;1914;-63
2021/08/12 04:31:49;;;;;;;;;;;;;;;20.16;41.27;100885.22;5100323;28;1125;-64
2021/08/12 04:34:14;;;;;;;;;;;;;;;20.16;43.08;100879.69;5118191;28;1403;-48
2021/08/12 04:36:41;;;;;;;;;;;;;;;20.24;43.84;100869.94;5109150;28;1035;-45
2021/08/12 04:39:06;;;;;;;;;;;;;;;20.42;43.59;100877.41;5100473;28;760;-45
2021/08/12 04:41:31;;;;;;;;;;;;;;;20.51;43.43;100875.66;5119225;28;791;-52
2021/08/12 04:43:57;;;;;;;;;;;;;;;20.57;43.25;100881.91;5101210;28;1173;-43
2021/08/12 04:46:24;;;;;;;;;;;;;;;20.47;42.97;100882.88;5118205;28;1014;-48
2021/08/12 04:48:50;;;;;;;;;;;;;;;20.52;43.24;100880.06;5100924;28;1181;-45
2021/08/12 04:51:15;;;;;;;;;;;;;;;20.47;43.23;100893.94;5118915;28;1909;-45
2021/08/12 04:53:41;;;;;;;;;;;;;;;20.30;43.78;100888.06;5100542;28;1301;-44
2021/08/12 04:56:06;;;;;;;;;;;;;;;20.52;43.11;100885.59;5118898;28;786;-57
2021/08/12 04:58:32;;;;;;;;;;;;;;;20.57;43.63;100886.63;5100313;28;1247;-58
2021/08/12 05:00:57;;;;;;;;;;;;;;;20.71;44.61;100893.06;5100516;28;1244;-55
2021/08/12 05:03:23;;;;;;;;;;;;;;;20.87;45.74;100899.19;5101180;28;1226;-57
2021/08/12 05:05:48;;;;;;;;;;;;;;;20.84;47.02;100906.13;5118501;28;847;-57
2021/08/12 05:08:14;;;;;;;;;;;;;;;20.95;47.81;100900.47;5099738;28;1960;-55
2021/08/12 05:10:43;;;;;;;;;;;;;;;21.10;47.92;100911.28;5100322;28;1909;-58
2021/08/12 05:13:09;;;;;;;;;;;;;;;21.23;48.35;100914.41;5100434;28;1167;-45
2021/08/12 05:15:34;;;;;;;;;;;;;;;21.34;48.33;100910.34;5118233;28;744;-57
2021/08/12 05:18:00;;;;;;;;;;;;;;;21.25;48.94;100918.50;5100038;28;1387;-57
2021/08/12 05:20:26;;;;;;;;;;;;;;;21.34;49.16;100913.91;5100187;28;1366;-56
2021/08/12 05:22:52;;;;;;;;;;;;;;;21.42;49.44;100914.34;5100532;28;1128;-60
2021/08/12 05:25:18;;;;;;;;;;;;;;;21.45;49.62;100919.28;5099088;28;1427;-56
2021/08/12 05:27:45;;;;;;;;;;;;;;;21.41;49.99;100915.50;5100065;28;1383;-43
2021/08/12 05:30:11;;;;;;;;;;;;;;;21.51;49.90;100920.84;5118377;28;1913;-59
2021/08/12 05:32:36;;;;;;;;;;;;;;;21.53;49.87;100918.59;5117089;28;1017;-43
2021/08/12 05:35:04;;;;;;;;;;;;;;;21.69;49.76;100921.94;5100462;28;1694;-53
2021/08/12 05:37:30;;;;;;;;;;;;;;;21.68;49.87;100923.84;5083089;28;1204;-57
2021/08/12 05:39:55;;;;;;;;;;;;;;;21.68;50.16;100925.81;5117378;28;766;-43
2021/08/12 05:42:23;;;;;;;;;;;;;;;21.78;49.81;100924.81;5118103;28;768;-57
2021/08/12 05:44:48;;;;;;;;;;;;;;;21.73;50.25;100922.13;5099549;28;1346;-62
2021/08/12 05:47:15;;;;;;;;;;;;;;;21.84;49.64;100926.38;5099055;28;1393;-43
2021/08/12 05:49:41;;;;;;;;;;;;;;;21.77;48.63;100929.53;5099449;28;1910;-43
2021/08/12 05:52:07;;;;;;;;;;;;;;;21.62;46.15;100924.28;5117840;28;811;-55
2021/08/12 05:54:32;;;;;;;;;;;;;;;21.24;44.74;100927.94;5099572;28;1236;-59
2021/08/12 05:56:58;;;;;;;;;;;;;;;20.95;43.31;100922.56;5099196;28;834;-61
2021/08/12 05:59:23;;;;;;;;;;;;;;;20.76;42.44;100919.81;5099356;28;1162;-61
2021/08/12 06:01:49;;;;;;;;;;;;;;;20.48;41.79;100923.22;5098939;28;1337;-63
2021/08/12 06:04:15;;;;;;;;;;;;;;;20.14;41.77;100920.59;5099267;28;1016;-43
2021/08/12 06:06:41;;;;;;;;;;;;;;;20.09;40.98;100926.16;5095687;28;1209;-67
2021/08/12 06:09:07;;;;;;;;;;;;;;;19.99;40.71;100922.41;5096608;28;850;-44
2021/08/12 06:11:34;;;;;;;;;;;;;;;20.29;42.79;100925.91;5095879;28;1915;-63
2021/08/12 06:14:01;;;;;;;;;;;;;;;20.83;48.77;100920.25;5095614;28;1014;-63
2021/08/12 06:16:26;;;;;;;;;;;;;;;21.33;53.09;100915.03;5094868;28;1165;-43
2021/08/12 06:18:52;;;;;;;;;;;;;;;21.61;56.00;100926.19;5095791;28;1246;-63
2021/08/12 06:21:20;;;;;;;;;;;;;;;21.84;58.12;100927.19;5095440;28;1251;-43
2021/08/12 06:23:45;;;;;;;;;;;;;;;22.16;57.33;100925.44;5096273;28;974;-44
2021/08/12 06:26:11;;;;;;;;;;;;;;;22.13;53.91;100930.78;5095568;28;1275;-64
2021/08/12 06:28:36;;;;;;;;;;;;;;;21.68;50.25;100932.16;5096255;28;775;-43
2021/08/12 06:31:02;;;;;;;;;;;;;;;21.56;46.77;100931.00;5094446;28;1905;-61
2021/08/12 06:33:28;;;;;;;;;;;;;;;;;;5078614;28;732;-65
2021/08/12 06:35:53;;;;;;;;;;;;;;;20.92;42.46;100926.75;5095517;28;938;-58
2021/08/12 06:38:19;;;;;;;;;;;;;;;20.70;41.69;100923.78;5094970;28;1283;-63
2021/08/12 06:40:45;;;;;;;;;;;;;;;19.73;42.00;100923.78;5094987;28;1239;-41
2021/08/12 06:43:11;;;;;;;;;;;;;;;19.26;42.01;100926.94;5095294;28;1172;-63
2021/08/12 06:45:51;;;;;;;;;;;;;;;18.69;42.74;100923.72;5095166;28;866;-60
2021/08/12 06:48:17;;;;;;;;;;;;;;;18.46;42.69;100928.78;5095140;28;1120;-62
2021/08/12 06:50:43;;;;;;;;;;;;;;;18.18;43.30;100934.97;5096205;28;1910;-49
2021/08/12 06:53:08;;;;;;;;;;;;;;;17.96;46.58;100938.88;5095943;28;764;-64
2021/08/12 06:55:35;;;;;;;;;;;;;;;18.01;46.37;100936.13;5094919;28;1105;-47
2021/08/12 06:58:01;;;;;;;;;;;;;;;18.13;47.27;100939.38;5095430;28;739;-59
2021/08/12 07:00:27;;;;;;;;;;;;;;;19.23;47.31;100933.03;5096014;28;751;-43
2021/08/12 07:02:54;;;;;;;;;;;;;;;20.22;52.49;100941.22;5094490;28;1117;-60
2021/08/12 07:05:21;;;;;;;;;;;;;;;20.69;57.24;100950.56;5078730;28;1267;-43
2021/08/12 07:07:46;;;;;;;;;;;;;;;21.13;59.23;100945.81;5111415;28;1026;-54
2021/08/12 07:10:14;;;;;;;;;;;;;;;21.53;59.44;100936.03;5097806;28;1906;-49
2021/08/12 07:12:40;;;;;;;;;;;;;;;21.57;57.34;100938.19;5098652;28;1127;-67
2021/08/12 07:15:06;;;;;;;;;;;;;;;21.44;52.95;100937.81;5098304;28;1157;-43
2021/08/12 07:17:32;;;;;;;;;;;;;;;21.37;48.74;100942.91;5098124;28;1220;-41
2021/08/12 07:19:58;;;;;;;;;;;;;;;21.11;45.73;100946.09;5098013;28;811;-44
2021/08/12 07:22:23;;;;;;;;;;;;;;;20.60;44.69;100941.28;5115794;28;787;-61
2021/08/12 07:24:49;;;;;;;;;;;;;;;20.29;43.42;100934.22;5098240;28;1125;-46
2021/08/12 07:27:15;;;;;;;;;;;;;;;20.07;42.67;100936.69;5098732;28;1051;-45
2021/08/12 07:29:40;;;;;;;;;;;;;;;20.20;42.46;100937.91;5097776;28;1897;-44
2021/08/12 07:32:06;;;;;;;;;;;;;;;20.47;46.40;100938.13;5115656;28;1014;-44
2021/08/12 07:34:41;;;;;;;;;;;;;;;21.06;52.28;100946.19;5098338;28;1271;-62
2021/08/12 07:37:06;;;;;;;;;;;;;;;21.52;55.75;100942.69;5097469;28;1117;-44
2021/08/12 07:39:32;;;;;;;;;;;;;;;21.90;57.94;100950.03;5098359;28;1153;-63
2021/08/12 07:41:58;;;;;;;;;;;;;;;22.11;58.83;100944.94;5097845;28;771;-43
2021/08/12 07:44:23;;;;;;;;;;;;;;;22.11;55.68;100950.47;5115609;28;807;-64
2021/08/12 07:46:48;;;;;;;;;;;;;;;21.93;51.87;100954.16;5097999;28;1086;-44
2021/08/12 07:49:14;;;;;;;;;;;;;;;21.61;48.28;100948.34;5097481;28;1933;-47
2021/08/12 07:51:39;;;;;;;;;;;;;;;21.34;45.58;100949.88;5115582;28;819;-58
2021/08/12 07:54:05;;;;;;;;;;;;;;;20.92;44.30;100942.53;5116100;28;747;-45
2021/08/12 07:56:30;;;;;;;;;;;;;;;21.15;50.46;100952.69;5117718;28;771;-65
2021/08/12 07:58:56;;;;;;;;;;;;;;;21.17;52.86;100944.91;5119037;28;827;-42
2021/08/12 08:01:21;;;;;;;;;;;;;;;20.94;53.64;100948.56;5119623;28;970;-64
2021/08/12 08:03:47;;;;;;;;;;;;;;;20.13;53.26;100950.16;5119566;28;767;-44
2021/08/12 08:06:12;;;;;;;;;;;;;;;19.11;53.84;100944.44;5119111;28;1145;-56
2021/08/12 08:08:39;;;;;;;;;;;;;;;18.60;53.02;100939.19;5119651;28;779;-45
2021/08/12 08:11:04;;;;;;;;;;;;;;;18.43;52.46;100942.31;5118521;28;1984;-63
2021/08/12 08:13:30;;;;;;;;;;;;;;;18.40;53.32;100938.19;5098637;28;993;-65
2021/08/12 08:15:55;;;;;;;;;;;;;;;19.22;57.80;100938.81;5080906;28;913;-45
2021/08/12 08:18:21;;;;;;;;;;;;;;;20.01;60.46;100946.97;5118335;28;958;-63
2021/08/12 08:20:46;;;;;;;;;;;;;;;20.66;61.81;100951.13;5118909;28;735;-61
2021/08/12 08:23:12;;;;;;;;;;;;;;;21.05;63.13;100946.47;5119270;28;948;-63
2021/08/12 08:25:37;;;;;;;;;;;;;;;21.34;63.93;100952.63;5119064;28;795;-60
2021/08/12 08:28:03;;;;;;;;;;;;;;;21.51;64.22;100942.97;5118060;28;1513;-65
2021/08/12 08:30:29;;;;;;;;;;;;;;;21.34;62.07;100940.75;5119143;28;1984;-45
2021/08/12 08:32:55;;;;;;;;;;;;;;;20.67;58.68;100947.25;5118509;28;962;-47
2021/08/12 08:35:20;;;;;;;;;;;;;;;19.93;55.94;100950.34;5118959;28;823;-66
2021/08/12 08:37:46;;;;;;;;;;;;;;;19.58;52.94;100939.34;5118551;28;731;-56
2021/08/12 08:40:11;;;;;;;;;;;;;;;19.28;50.56;100940.44;5118819;28;755;-45
2021/08/12 08:42:37;;;;;;;;;;;;;;;18.96;49.52;100939.84;5118855;28;771;-44
2021/08/12 08:45:03;;;;;;;;;;;;;;;18.74;48.54;100948.47;5099497;28;896;-60
2021/08/12 08:47:28;;;;;;;;;;;;;;;18.91;47.79;100947.31;5099943;28;966;-44
2021/08/12 08:49:54;;;;;;;;;;;;;;;18.72;48.37;100947.09;5100664;28;1971;-48
2021/08/12 08:52:19;;;;;;;;;;;;;;;18.82;49.49;100955.34;5099979;28;780;-49
2021/08/12 08:54:45;;;;;;;;;;;;;;;19.04;50.58;100943.09;5118633;28;1005;-44
2021/08/12 08:57:10;;;;;;;;;;;;;;;19.09;52.28;100949.38;5118697;28;771;-62
2021/08/12 08:59:36;;;;;;;;;;;;;;;19.34;53.12;100935.72;5118134;28;752;-59
2021/08/12 09:02:05;;;;;;;;;;;;;;;19.36;54.37;100939.81;5099671;28;989;-45
2021/08/12 09:04:31;;;;;;;;;;;;;;;19.46;54.88;100942.50;5118541;28;791;-61
2021/08/12 09:06:57;;;;;;;;;;;;;;;19.48;55.29;100940.25;5098892;28;1233;-44
2021/08/12 09:09:22;;;;;;;;;;;;;;;19.65;55.18;100944.53;5099523;28;1921;-52
2021/08/12 09:11:48;;;;;;;;;;;;;;;19.66;55.71;100946.19;5117984;28;888;-54
2021/08/12 09:14:32;;;;;;;;;;;;;;;19.85;55.35;100951.81;5117520;28;792;-56
2021/08/12 09:16:58;;;;;;;;;;;;;;;19.96;55.18;100944.25;5117903;28;933;-51
2021/08/12 09:19:24;;;;;;;;;;;;;;;19.85;55.65;100939.94;5118293;28;1004;-55
2021/08/12 09:21:50;;;;;;;;;;;;;;;19.97;55.57;100940.38;5097877;28;1535;-45
2021/08/12 09:24:16;;;;;;;;;;;;;;;19.99;55.88;100949.19;5111358;28;823;-46
2021/08/12 09:26:41;;;;;;;;;;;;;;;19.77;56.79;100941.41;5097989;28;735;-61
2021/08/12 09:29:07;;;;;;;;;;;;;;;19.52;60.50;100961.75;5101125;28;807;-49
2021/08/12 09:31:33;;;;;;;;;;;;;;;19.42;60.52;100952.47;5094403;28;1914;-61
2021/08/12 09:33:58;;;;;;;;;;;;;;;19.23;58.30;100954.25;5097295;28;815;-62
2021/08/12 09:36:25;;;;;;;;;;;;;;;19.57;55.01;100948.75;5095672;28;941;-58
2021/08/12 09:39:07;;;;;;;;;;;;;;;19.58;55.43;100949.56;5098037;28;783;-59
2021/08/12 09:41:36;;;;;;;;;;;;;;;19.85;63.01;100962.03;5097133;28;798;-54
2021/08/12 09:44:02;;;;;;;;;;;;;;;20.20;67.22;100962.75;5096608;28;743;-60
2021/08/12 09:46:27;;;;;;;;;;;;;;;20.24;68.99;100963.81;5100569;28;974;-45
2021/08/12 09:48:56;;;;;;;;;;;;;;;20.34;68.93;100961.78;5117503;28;755;-61
2021/08/12 09:51:24;;;;;;;;;;;;;;;20.49;67.36;100962.69;5117267;28;1971;-44
2021/08/12 09:54:00;;;;;;;;;;;;;;;20.63;65.51;100960.03;5098912;28;1234;-46
2021/08/12 09:56:25;;;;;;;;;;;;;;;20.75;63.41;100952.16;5117510;28;811;-44
2021/08/12 09:58:50;;;;;;;;;;;;;;;20.74;62.19;100956.03;5116786;28;836;-45
2021/08/12 10:01:17;;;;;;;;;;;;;;;21.02;60.34;100959.75;5116841;28;867;-58
2021/08/12 10:03:44;;;;;;;;;;;;;;;20.83;59.90;100962.56;5117231;28;810;-58
2021/08/12 10:06:18;;;;;;;;;;;;;;;20.76;59.43;100962.09;5116447;28;1194;-46
2021/08/12 10:08:43;;;;;;;;;;;;;;;20.92;58.36;100968.22;5098552;28;938;-59
2021/08/12 10:11:16;;;;;;;;;;;;;;;20.92;57.53;100959.13;5116944;28;1917;-47
2021/08/12 10:13:42;;;;;;;;;;;;;;;21.06;56.74;100954.47;5116886;28;724;-58
2021/08/12 10:16:07;;;;;;;;;;;;;;;20.93;56.91;100961.59;5116865;28;973;-58
2021/08/12 10:18:33;;;;;;;;;;;;;;;20.92;56.56;100967.41;5117262;28;787;-53
2021/08/12 10:20:58;;;;;;;;;;;;;;;21.09;55.78;100962.16;5098906;28;787;-50
2021/08/12 10:23:23;;;;;;;;;;;;;;;21.03;55.70;100950.34;5116791;28;795;-49
2021/08/12 10:25:50;;;;;;;;;;;;;;;20.97;55.59;100956.25;5116918;28;803;-53
2021/08/12 10:28:17;;;;;;;;;;;;;;;20.45;56.56;100964.41;5097923;28;831;-58
2021/08/12 10:30:42;;;;;;;;;;;;;;;20.46;56.98;100966.03;5098521;28;1910;-49
2021/08/12 10:33:08;;;;;;;;;;;;;;;20.79;57.63;100968.94;5097870;28;970;-60
2021/08/12 10:35:34;;;;;;;;;;;;;;;20.83;59.86;100962.56;5116470;28;847;-48
2021/08/12 10:38:00;;;;;;;;;;;;;;;21.00;61.26;100958.44;5116807;28;799;-59
2021/08/12 10:40:35;;;;;;;;;;;;;;;21.06;62.64;100954.47;5117158;28;792;-45
2021/08/12 10:43:02;;;;;;;;;;;;;;;21.25;63.00;100957.22;5081348;28;1253;-58
2021/08/12 10:45:27;;;;;;;;;;;;;;;21.24;63.90;100965.81;5097951;28;799;-46
2021/08/12 10:47:56;;;;;;;;;;;;;;;21.32;61.94;100962.34;5116517;28;961;-45
2021/08/12 10:50:23;;;;;;;;;;;;;;;21.39;58.74;100970.28;5116685;28;1987;-58
2021/08/12 10:53:06;;;;;;;;;;;;;;;21.25;55.40;100973.81;5116809;28;823;-45
2021/08/12 10:55:31;;;;;;;;;;;;;;;21.02;52.87;100981.06;5116753;28;771;-55
2021/08/12 10:58:15;;;;;;;;;;;;;;;20.79;51.69;100971.72;5115837;28;897;-47
2021/08/12 11:00:46;;;;;;;;;;;;;;;20.42;50.86;100968.56;5116677;28;974;-60
2021/08/12 11:03:12;;;;;;;;;;;;;;;20.52;51.76;100979.50;5116236;28;994;-60
2021/08/12 11:06:06;;;;;;;;;;;;;;;20.92;55.50;100976.50;5097304;28;1256;-58
2021/08/12 11:11:16;;;;;;;;;;;;;;;21.08;62.62;100963.28;5115613;28;1917;-45
2021/08/12 11:13:42;;;;;;;;;;;;;;;21.28;63.51;100961.31;5098262;28;1610;-63
2021/08/12 11:16:08;;;;;;;;;;;;;;;21.39;63.54;100968.31;5116213;28;961;-63
2021/08/12 11:18:46;;;;;;;;;;;;;;;21.43;62.32;100974.91;5115973;28;846;-46
2021/08/12 11:21:29;;;;;;;;;;;;;;;21.25;58.55;100967.44;5116599;28;786;-58
2021/08/12 11:23:55;;;;;;;;;;;;;;;21.15;53.78;100979.50;5116042;28;728;-46
2021/08/12 11:26:21;;;;;;;;;;;;;;;21.03;50.73;100975.25;5115818;28;810;-47
2021/08/12 11:28:46;;;;;;;;;;;;;;;20.83;48.94;100976.38;5098340;28;838;-48
2021/08/12 11:31:23;;;;;;;;;;;;;;;20.35;48.21;100963.38;5098886;28;1921;-57
2021/08/12 11:33:54;;;;;;;;;;;;;;;20.24;49.51;100969.34;5119743;28;878;-56
2021/08/12 11:36:29;;;;;;;;;;;;;;;20.66;54.94;100973.25;5119962;28;759;-53
2021/08/12 11:39:00;;;;;;;;;;;;;;;20.76;60.13;100973.16;5120005;28;814;-51
2021/08/12 11:41:25;;;;;;;;;;;;;;;20.93;63.08;100967.09;5119861;28;838;-55
2021/08/12 11:43:51;;;;;;;;;;;;;;;21.22;63.77;100963.34;5120035;28;803;-47
2021/08/12 11:46:16;;;;;;;;;;;;;;;21.16;64.92;100970.91;5119697;28;1017;-58
2021/08/12 11:48:42;;;;;;;;;;;;;;;21.41;64.42;100977.16;5119450;28;846;-61
2021/08/12 11:51:08;;;;;;;;;;;;;;;21.36;63.50;100971.69;5119922;28;1917;-59
2021/08/12 11:53:49;;;;;;;;;;;;;;;21.09;58.29;100964.13;5119895;28;875;-56
2021/08/12 11:56:37;;;;;;;;;;;;;;;21.09;52.58;100970.47;5119498;28;755;-57
2021/08/12 11:59:03;;;;;;;;;;;;;;;20.75;49.32;100970.66;5113259;28;1561;-58
2021/08/12 12:01:32;;;;;;;;;;;;;;;20.59;47.97;100964.50;5107534;28;887;-48
2021/08/12 12:04:04;;;;;;;;;;;;;;;20.65;51.08;100979.88;5119517;28;767;-49
2021/08/12 12:06:30;;;;;;;;;;;;;;;20.84;56.66;100974.41;5119320;28;1172;-48
2021/08/12 12:08:55;;;;;;;;;;;;;;;20.94;60.56;100977.03;5119551;28;815;-54
2021/08/12 12:11:21;;;;;;;;;;;;;;;21.00;62.42;100983.31;5119479;28;1986;-48
2021/08/12 12:13:46;;;;;;;;;;;;;;;21.04;63.74;100973.28;5119629;28;807;-49
2021/08/12 12:16:12;;;;;;;;;;;;;;;21.20;62.84;100987.72;5118717;28;1021;-59
2021/08/12 12:18:42;;;;;;;;;;;;;;;21.18;61.89;100985.25;5100779;28;1388;-47
2021/08/12 12:21:11;;;;;;;;;;;;;;;21.28;59.94;100984.28;5101148;28;1129;-48
2021/08/12 12:23:38;;;;;;;;;;;;;;;21.12;58.94;100975.38;5119267;28;843;-54
2021/08/12 12:26:03;;;;;;;;;;;;;;;21.20;57.37;100969.19;5119442;28;742;-51
2021/08/12 12:28:32;;;;;;;;;;;;;;;21.24;56.28;100979.63;5118946;28;815;-56
2021/08/12 12:30:57;;;;;;;;;;;;;;;20.71;55.60;100975.97;5119178;28;1921;-47
2021/08/12 12:33:25;;;;;;;;;;;;;;;20.64;56.71;100975.50;5083582;28;1308;-52
2021/08/12 12:35:51;;;;;;;;;;;;;;;20.72;56.07;100974.03;5118410;28;812;-46
2021/08/12 12:38:23;;;;;;;;;;;;;;;20.87;54.98;100978.53;5119122;28;807;-54
2021/08/12 12:40:49;;;;;;;;;;;;;;;20.95;54.54;100983.38;5118294;28;510;-58
2021/08/12 12:43:14;;;;;;;;;;;;;;;20.95;53.96;100978.69;5117721;28;808;-55
2021/08/12 12:45:52;;;;;;;;;;;;;;;20.72;54.42;100983.16;5118823;28;503;-48
2021/08/12 12:48:28;;;;;;;;;;;;;;;20.75;54.12;100988.09;5118020;28;953;-47
2021/08/12 12:50:53;;;;;;;;;;;;;;;20.67;54.02;100983.19;5119081;28;1922;-53
2021/08/12 12:53:28;;;;;;;;;;;;;;;20.73;53.80;100982.00;5118464;28;858;-55
2021/08/12 12:55:53;;;;;;;;;;;;;;;20.90;53.08;100978.78;5118581;28;847;-52